Thunder radar more information blitzortung!


Radar de pluja more information rain snow radar


Visita la nostra xarxa de llocs de meteo:

Template documentation
and downloads

And another site



No particular awareness of the weather is required.    There are no Weather-warnings

Pagina Historial Weather Underground text

Diari Resum Juliol 22, 2017 Unitats:  Tant    Imperial   Mètric
« Previous Dia
SegĂźent Dia »
Diari Setmana Mensual Anual Personalitzada
  Maxima: Minima: Media:
Temperatura: 90.5 °F /  32.5 °C 65.7 °F /  18.7 °C 79.3 °F /  26.3 °C
Punt de rosada: 68.5 °F /  20.3 °C 62.1 °F /  16.7 °C 65.1 °F /  18.4 °C
Humitat: 89 % 46 % 63 %
Wind Speed: 12.7 mph /  20.4 km/h - 3.5 mph /  5.6 km/h
RĂ fegues de vent: 13 mph /  20.9 km/h - -
Vent:- - South
Pression baro: 30 in /  1016.8 hPa 29.8 in /  1010.0 hPa -
Precipitacions: 0 in /  0.0 mm    
Historical Graphs
 
 
Dades de taula per Juliol 22, 2017
Temps Temperatura Punt de rosada Pression baro Vent Wind Speed RĂ fegues de vent Humitat Rainfall Rate (Hourly)
00:00 67.3 °F /  19.6 °C 63 °F /  17.2 °C 29.9 in /  1011.7 hPa Calm     86 % 0 in /  0.0 mm
00:03 72.3 °F /  22.4 °C 63.7 °F /  17.6 °C 29.8 in /  1010.0 hPa WSW 1.2 mph /  1.9 km/h 1.2 mph /  1.9 km/h 74 % 0 in /  0.0 mm
00:10 67.3 °F /  19.6 °C 63.3 °F /  17.4 °C 29.9 in /  1011.7 hPa Calm   1 mph /  1.6 km/h 87 % 0 in /  0.0 mm
00:20 67.1 °F /  19.5 °C 63.1 °F /  17.3 °C 29.9 in /  1011.7 hPa Calm     87 % 0 in /  0.0 mm
00:30 67.1 °F /  19.5 °C 63.1 °F /  17.3 °C 29.9 in /  1011.7 hPa Calm     87 % 0 in /  0.0 mm
00:40 66.9 °F /  19.4 °C 63 °F /  17.2 °C 29.9 in /  1012.8 hPa Calm     87 % 0 in /  0.0 mm
00:50 66.6 °F /  19.2 °C 62.6 °F /  17.0 °C 29.9 in /  1012.8 hPa SSW 2 mph /  3.2 km/h 2 mph /  3.2 km/h 87 % 0 in /  0.0 mm
01:00 66.4 °F /  19.1 °C 62.4 °F /  16.9 °C 29.9 in /  1011.7 hPa SW 1 mph /  1.6 km/h 3 mph /  4.8 km/h 87 % 0 in /  0.0 mm
01:10 66.4 °F /  19.1 °C 62.8 °F /  17.1 °C 29.9 in /  1011.7 hPa Calm   1 mph /  1.6 km/h 88 % 0 in /  0.0 mm
01:20 66.4 °F /  19.1 °C 62.8 °F /  17.1 °C 29.9 in /  1011.7 hPa Calm     88 % 0 in /  0.0 mm
01:30 66.4 °F /  19.1 °C 62.8 °F /  17.1 °C 29.9 in /  1011.7 hPa WSW 1 mph /  1.6 km/h 1 mph /  1.6 km/h 88 % 0 in /  0.0 mm
01:40 66.4 °F /  19.1 °C 62.8 °F /  17.1 °C 29.9 in /  1011.7 hPa NNE 1 mph /  1.6 km/h 2 mph /  3.2 km/h 88 % 0 in /  0.0 mm
01:50 65.7 °F /  18.7 °C 62.1 °F /  16.7 °C 29.9 in /  1011.7 hPa Calm   1 mph /  1.6 km/h 88 % 0 in /  0.0 mm
02:00 65.8 °F /  18.8 °C 62.2 °F /  16.8 °C 29.9 in /  1011.7 hPa SSW 1 mph /  1.6 km/h 2 mph /  3.2 km/h 88 % 0 in /  0.0 mm
02:10 65.8 °F /  18.8 °C 62.4 °F /  16.9 °C 29.9 in /  1011.7 hPa Calm   1 mph /  1.6 km/h 89 % 0 in /  0.0 mm
02:20 66 °F /  18.9 °C 62.8 °F /  17.1 °C 29.9 in /  1011.7 hPa Calm     89 % 0 in /  0.0 mm
02:30 66.2 °F /  19.0 °C 63 °F /  17.2 °C 29.9 in /  1011.7 hPa SW 1 mph /  1.6 km/h 2 mph /  3.2 km/h 89 % 0 in /  0.0 mm
02:40 66.4 °F /  19.1 °C 62.8 °F /  17.1 °C 29.9 in /  1011.7 hPa SW 1 mph /  1.6 km/h 2 mph /  3.2 km/h 88 % 0 in /  0.0 mm
02:50 66.7 °F /  19.3 °C 63.3 °F /  17.4 °C 29.9 in /  1011.7 hPa SW 1 mph /  1.6 km/h 2 mph /  3.2 km/h 89 % 0 in /  0.0 mm
03:00 67.1 °F /  19.5 °C 63.3 °F /  17.4 °C 29.9 in /  1011.7 hPa SW 1 mph /  1.6 km/h 2 mph /  3.2 km/h 88 % 0 in /  0.0 mm
03:10 68.7 °F /  20.4 °C 64.8 °F /  18.2 °C 29.9 in /  1011.7 hPa SE 1 mph /  1.6 km/h 2 mph /  3.2 km/h 87 % 0 in /  0.0 mm
03:20 69.8 °F /  21.0 °C 64.8 °F /  18.2 °C 29.9 in /  1011.7 hPa NE 1 mph /  1.6 km/h 3 mph /  4.8 km/h 84 % 0 in /  0.0 mm
03:30 70.7 °F /  21.5 °C 64.9 °F /  18.3 °C 29.9 in /  1011.7 hPa NE 2 mph /  3.2 km/h 3 mph /  4.8 km/h 82 % 0 in /  0.0 mm
03:40 70.9 °F /  21.6 °C 64.8 °F /  18.2 °C 29.9 in /  1012.8 hPa NE 3 mph /  4.8 km/h 3 mph /  4.8 km/h 81 % 0 in /  0.0 mm
03:50 71.8 °F /  22.1 °C 65.3 °F /  18.5 °C 29.9 in /  1012.8 hPa ENE 2 mph /  3.2 km/h 3 mph /  4.8 km/h 80 % 0 in /  0.0 mm
04:00 72.1 °F /  22.3 °C 65.3 °F /  18.5 °C 29.9 in /  1012.8 hPa NE 1 mph /  1.6 km/h 4 mph /  6.4 km/h 79 % 0 in /  0.0 mm
04:10 73.2 °F /  22.9 °C 65.8 °F /  18.8 °C 29.9 in /  1012.8 hPa NE 1 mph /  1.6 km/h 3 mph /  4.8 km/h 78 % 0 in /  0.0 mm
04:20 73.2 °F /  22.9 °C 65.1 °F /  18.4 °C 29.9 in /  1012.8 hPa NE 2 mph /  3.2 km/h 2 mph /  3.2 km/h 76 % 0 in /  0.0 mm
04:30 74.3 °F /  23.5 °C 65.8 °F /  18.8 °C 29.9 in /  1012.8 hPa Calm   3 mph /  4.8 km/h 75 % 0 in /  0.0 mm
04:40 74.8 °F /  23.8 °C 66.4 °F /  19.1 °C 29.9 in /  1012.8 hPa SSW 2 mph /  3.2 km/h 3 mph /  4.8 km/h 75 % 0 in /  0.0 mm
09:39 74.8 °F /  23.8 °C 66.4 °F /  19.1 °C 29.9 in /  1012.8 hPa East 2.3 mph /  3.7 km/h 2.4 mph /  3.9 km/h 75 % 0 in /  0.0 mm
09:44 75.4 °F /  24.1 °C 66 °F /  18.9 °C 29.9 in /  1012.8 hPa SSE 3.5 mph /  5.6 km/h 3.5 mph /  5.6 km/h 73 % 0 in /  0.0 mm
09:49 75.2 °F /  24.0 °C 65.7 °F /  18.7 °C 29.9 in /  1012.8 hPa SE 3.5 mph /  5.6 km/h 3.5 mph /  5.6 km/h 72 % 0 in /  0.0 mm
09:55 76.1 °F /  24.5 °C 66.4 °F /  19.1 °C 29.9 in /  1012.8 hPa East 1 mph /  1.6 km/h 3 mph /  4.8 km/h 72 % 0 in /  0.0 mm
10:00 75.7 °F /  24.3 °C 65.3 °F /  18.5 °C 29.9 in /  1012.8 hPa ESE 2 mph /  3.2 km/h 5 mph /  8.0 km/h 70 % 0 in /  0.0 mm
10:05 76.8 °F /  24.9 °C 66.7 °F /  19.3 °C 29.9 in /  1012.8 hPa ESE 2 mph /  3.2 km/h 3 mph /  4.8 km/h 71 % 0 in /  0.0 mm
10:10 77 °F /  25.0 °C 66 °F /  18.9 °C 29.9 in /  1013.8 hPa East 1 mph /  1.6 km/h 4 mph /  6.4 km/h 69 % 0 in /  0.0 mm
10:15 77.4 °F /  25.2 °C 66.4 °F /  19.1 °C 29.9 in /  1013.8 hPa East 2 mph /  3.2 km/h 4 mph /  6.4 km/h 69 % 0 in /  0.0 mm
10:20 78.1 °F /  25.6 °C 67.1 °F /  19.5 °C 29.9 in /  1013.8 hPa Calm   4 mph /  6.4 km/h 69 % 0 in /  0.0 mm
10:25 78.8 °F /  26.0 °C 67.3 °F /  19.6 °C 29.9 in /  1012.8 hPa South 2.3 mph /  3.7 km/h 2.3 mph /  3.7 km/h 68 % 0 in /  0.0 mm
10:30 78.8 °F /  26.0 °C 67.3 °F /  19.6 °C 29.9 in /  1012.8 hPa WSW 2.3 mph /  3.7 km/h 2.6 mph /  4.2 km/h 68 % 0 in /  0.0 mm
10:35 78.8 °F /  26.0 °C 66.9 °F /  19.4 °C 29.9 in /  1012.8 hPa West 3.5 mph /  5.6 km/h 3.5 mph /  5.6 km/h 67 % 0 in /  0.0 mm
10:40 77.7 °F /  25.4 °C 65.1 °F /  18.4 °C 29.9 in /  1012.8 hPa SE 5 mph /  8.0 km/h 6 mph /  9.7 km/h 65 % 0 in /  0.0 mm
10:45 78.3 °F /  25.7 °C 65.8 °F /  18.8 °C 29.9 in /  1012.8 hPa East 3 mph /  4.8 km/h 5 mph /  8.0 km/h 66 % 0 in /  0.0 mm
10:50 79.3 °F /  26.3 °C 66.9 °F /  19.4 °C 29.9 in /  1012.8 hPa North 2.3 mph /  3.7 km/h 2.3 mph /  3.7 km/h 66 % 0 in /  0.0 mm
10:55 80.1 °F /  26.7 °C 67.3 °F /  19.6 °C 29.9 in /  1012.8 hPa ESE 2 mph /  3.2 km/h 2 mph /  3.2 km/h 65 % 0 in /  0.0 mm
11:00 80.6 °F /  27.0 °C 66.7 °F /  19.3 °C 29.9 in /  1012.8 hPa NNW 3.5 mph /  5.6 km/h 3.5 mph /  5.6 km/h 63 % 0 in /  0.0 mm
11:05 81 °F /  27.2 °C 67.3 °F /  19.6 °C 29.9 in /  1012.8 hPa SW 3.6 mph /  5.8 km/h 3.6 mph /  5.8 km/h 63 % 0 in /  0.0 mm
11:06 80.8 °F /  27.1 °C 66.9 °F /  19.4 °C 29.9 in /  1012.8 hPa SW 4.6 mph /  7.4 km/h 4.6 mph /  7.4 km/h 63 % 0 in /  0.0 mm
11:11 80.8 °F /  27.1 °C 66.6 °F /  19.2 °C 29.9 in /  1012.8 hPa SW 3.5 mph /  5.6 km/h 3.5 mph /  5.6 km/h 62 % 0 in /  0.0 mm
11:12 80.8 °F /  27.1 °C 66.6 °F /  19.2 °C 29.9 in /  1012.8 hPa SSW 2.3 mph /  3.7 km/h 2.3 mph /  3.7 km/h 62 % 0 in /  0.0 mm
11:17 81.3 °F /  27.4 °C 66.6 °F /  19.2 °C 29.9 in /  1012.8 hPa SW 4.6 mph /  7.4 km/h 4.6 mph /  7.4 km/h 61 % 0 in /  0.0 mm
11:22 81.3 °F /  27.4 °C 66 °F /  18.9 °C 29.9 in /  1012.8 hPa West 4.6 mph /  7.4 km/h 4.6 mph /  7.4 km/h 60 % 0 in /  0.0 mm
11:27 81.7 °F /  27.6 °C 66 °F /  18.9 °C 29.9 in /  1012.8 hPa SSE 4.6 mph /  7.4 km/h 4.6 mph /  7.4 km/h 59 % 0 in /  0.0 mm
11:32 82.4 °F /  28.0 °C 66 °F /  18.9 °C 29.9 in /  1012.8 hPa SSE 2.3 mph /  3.7 km/h 2.3 mph /  3.7 km/h 58 % 0 in /  0.0 mm
11:37 82.8 °F /  28.2 °C 66 °F /  18.9 °C 29.9 in /  1011.7 hPa ENE 4.3 mph /  6.9 km/h 4.3 mph /  6.9 km/h 57 % 0 in /  0.0 mm
11:42 82.4 °F /  28.0 °C 65.7 °F /  18.7 °C 29.9 in /  1011.7 hPa NE 3.5 mph /  5.6 km/h 3.6 mph /  5.8 km/h 57 % 0 in /  0.0 mm
11:47 82.2 °F /  27.9 °C 65.5 °F /  18.6 °C 29.9 in /  1011.7 hPa SW 3.6 mph /  5.8 km/h 3.6 mph /  5.8 km/h 57 % 0 in /  0.0 mm
11:52 84 °F /  28.9 °C 66.6 °F /  19.2 °C 29.9 in /  1011.7 hPa SW 6.2 mph /  10.0 km/h 6.2 mph /  10.0 km/h 56 % 0 in /  0.0 mm
11:57 83.8 °F /  28.8 °C 65.5 °F /  18.6 °C 29.9 in /  1011.7 hPa SSW 4.6 mph /  7.4 km/h 4.6 mph /  7.4 km/h 54 % 0 in /  0.0 mm
12:02 84.4 °F /  29.1 °C 64.8 °F /  18.2 °C 29.9 in /  1011.7 hPa South 4.6 mph /  7.4 km/h 4.6 mph /  7.4 km/h 52 % 0 in /  0.0 mm
12:07 84.7 °F /  29.3 °C 65.7 °F /  18.7 °C 29.9 in /  1011.7 hPa SW 5.8 mph /  9.3 km/h 5.8 mph /  9.3 km/h 53 % 0 in /  0.0 mm
12:12 84.6 °F /  29.2 °C 65.5 °F /  18.6 °C 29.9 in /  1011.7 hPa SW 5.8 mph /  9.3 km/h 5.8 mph /  9.3 km/h 53 % 0 in /  0.0 mm
12:17 85.3 °F /  29.6 °C 65.1 °F /  18.4 °C 29.9 in /  1011.7 hPa ENE 4 mph /  6.4 km/h 4 mph /  6.4 km/h 51 % 0 in /  0.0 mm
12:22 84.4 °F /  29.1 °C 64.8 °F /  18.2 °C 29.9 in /  1011.7 hPa WSW 2.4 mph /  3.9 km/h 2.4 mph /  3.9 km/h 52 % 0 in /  0.0 mm
12:27 84.2 °F /  29.0 °C 64.8 °F /  18.2 °C 29.9 in /  1011.7 hPa ESE 5.8 mph /  9.3 km/h 5.8 mph /  9.3 km/h 52 % 0 in /  0.0 mm
12:32 84.2 °F /  29.0 °C 65.1 °F /  18.4 °C 29.9 in /  1011.7 hPa SW 2.3 mph /  3.7 km/h 2.3 mph /  3.7 km/h 53 % 0 in /  0.0 mm
12:37 83.8 °F /  28.8 °C 64.9 °F /  18.3 °C 29.9 in /  1011.7 hPa NE 4.6 mph /  7.4 km/h 4.6 mph /  7.4 km/h 53 % 0 in /  0.0 mm
12:42 82 °F /  27.8 °C 64.8 °F /  18.2 °C 29.9 in /  1011.7 hPa ESE 12.7 mph /  20.4 km/h 12.7 mph /  20.4 km/h 56 % 0 in /  0.0 mm
12:47 82.6 °F /  28.1 °C 65.8 °F /  18.8 °C 29.9 in /  1011.7 hPa South 6.9 mph /  11.1 km/h 6.9 mph /  11.1 km/h 57 % 0 in /  0.0 mm
12:52 82.4 °F /  28.0 °C 66 °F /  18.9 °C 29.9 in /  1011.7 hPa ESE 4.6 mph /  7.4 km/h 4.6 mph /  7.4 km/h 58 % 0 in /  0.0 mm
12:57 81.9 °F /  27.7 °C 65.7 °F /  18.7 °C 29.9 in /  1011.7 hPa ESE 6.9 mph /  11.1 km/h 6.9 mph /  11.1 km/h 58 % 0 in /  0.0 mm
13:02 81 °F /  27.2 °C 65.3 °F /  18.5 °C 29.9 in /  1011.7 hPa ESE 9.2 mph /  14.8 km/h 9.2 mph /  14.8 km/h 59 % 0 in /  0.0 mm
13:07 81 °F /  27.2 °C 65.3 °F /  18.5 °C 29.9 in /  1011.7 hPa ESE 5.8 mph /  9.3 km/h 5.8 mph /  9.3 km/h 59 % 0 in /  0.0 mm
13:12 80.8 °F /  27.1 °C 65.7 °F /  18.7 °C 29.9 in /  1011.7 hPa East 4.6 mph /  7.4 km/h 4.6 mph /  7.4 km/h 60 % 0 in /  0.0 mm
13:17 80.8 °F /  27.1 °C 65.7 °F /  18.7 °C 29.9 in /  1011.7 hPa SSW 5.8 mph /  9.3 km/h 5.8 mph /  9.3 km/h 60 % 0 in /  0.0 mm
13:22 81 °F /  27.2 °C 65.3 °F /  18.5 °C 29.9 in /  1012.8 hPa SSW 5.8 mph /  9.3 km/h 5.8 mph /  9.3 km/h 59 % 0 in /  0.0 mm
13:27 81 °F /  27.2 °C 65.3 °F /  18.5 °C 29.9 in /  1012.8 hPa WSW 3.5 mph /  5.6 km/h 3.5 mph /  5.6 km/h 59 % 0 in /  0.0 mm
13:32 81.3 °F /  27.4 °C 65.7 °F /  18.7 °C 29.9 in /  1012.8 hPa WSW 2.3 mph /  3.7 km/h 2.4 mph /  3.9 km/h 59 % 0 in /  0.0 mm
13:37 81.9 °F /  27.7 °C 66 °F /  18.9 °C 29.9 in /  1012.8 hPa SSW 3.5 mph /  5.6 km/h 3.5 mph /  5.6 km/h 59 % 0 in /  0.0 mm
13:42 82.4 °F /  28.0 °C 66.6 °F /  19.2 °C 29.9 in /  1012.8 hPa ESE 2.3 mph /  3.7 km/h 2.3 mph /  3.7 km/h 59 % 0 in /  0.0 mm
13:47 82.4 °F /  28.0 °C 66.6 °F /  19.2 °C 29.9 in /  1012.8 hPa South 3.5 mph /  5.6 km/h 3.5 mph /  5.6 km/h 59 % 0 in /  0.0 mm
13:52 83.7 °F /  28.7 °C 67.8 °F /  19.9 °C 29.9 in /  1012.8 hPa SW 4.6 mph /  7.4 km/h 4.6 mph /  7.4 km/h 59 % 0 in /  0.0 mm
13:57 83.8 °F /  28.8 °C 67.5 °F /  19.7 °C 29.9 in /  1012.8 hPa WSW 1.2 mph /  1.9 km/h 1.2 mph /  1.9 km/h 58 % 0 in /  0.0 mm
13:59 83.8 °F /  28.8 °C 67.5 °F /  19.7 °C 29.9 in /  1012.8 hPa South 2.3 mph /  3.7 km/h 2.3 mph /  3.7 km/h 58 % 0 in /  0.0 mm
14:04 83.8 °F /  28.8 °C 67.5 °F /  19.7 °C 29.9 in /  1012.8 hPa SSW 2.4 mph /  3.9 km/h   58 % 0 in /  0.0 mm
14:09 83.5 °F /  28.6 °C 67.1 °F /  19.5 °C 29.9 in /  1012.8 hPa South 2.3 mph /  3.7 km/h 2.3 mph /  3.7 km/h 58 % 0 in /  0.0 mm
14:15 83.5 °F /  28.6 °C 66 °F /  18.9 °C 29.9 in /  1012.8 hPa SSW 3 mph /  4.8 km/h 5 mph /  8.0 km/h 56 % 0 in /  0.0 mm
14:20 84.2 °F /  29.0 °C 66.7 °F /  19.3 °C 29.9 in /  1012.8 hPa SSW 2 mph /  3.2 km/h 6 mph /  9.7 km/h 56 % 0 in /  0.0 mm
14:25 84.2 °F /  29.0 °C 66.7 °F /  19.3 °C 29.9 in /  1011.7 hPa WSW 3 mph /  4.8 km/h 6 mph /  9.7 km/h 56 % 0 in /  0.0 mm
14:30 84.7 °F /  29.3 °C 66.7 °F /  19.3 °C 29.9 in /  1011.7 hPa South 4.6 mph /  7.4 km/h 4.6 mph /  7.4 km/h 55 % 0 in /  0.0 mm
14:35 84.9 °F /  29.4 °C 66.9 °F /  19.4 °C 29.9 in /  1011.7 hPa SSW 3 mph /  4.8 km/h 9 mph /  14.5 km/h 55 % 0 in /  0.0 mm
14:40 85.8 °F /  29.9 °C 67.3 °F /  19.6 °C 29.8 in /  1010.7 hPa SW 5.6 mph /  9.0 km/h 5.6 mph /  9.0 km/h 54 % 0 in /  0.0 mm
14:45 85.6 °F /  29.8 °C 67.1 °F /  19.5 °C 29.8 in /  1010.7 hPa SW 4.6 mph /  7.4 km/h 4.6 mph /  7.4 km/h 54 % 0 in /  0.0 mm
14:50 86.7 °F /  30.4 °C 67.5 °F /  19.7 °C 29.8 in /  1010.7 hPa SSE 4.6 mph /  7.4 km/h 4.6 mph /  7.4 km/h 53 % 0 in /  0.0 mm
14:55 88.3 °F /  31.3 °C 68.5 °F /  20.3 °C 29.9 in /  1011.7 hPa West 4.6 mph /  7.4 km/h 4.6 mph /  7.4 km/h 52 % 0 in /  0.0 mm
15:00 87.4 °F /  30.8 °C 67.1 °F /  19.5 °C 29.9 in /  1011.7 hPa SW 2.6 mph /  4.2 km/h 2.6 mph /  4.2 km/h 51 % 0 in /  0.0 mm
15:05 87.4 °F /  30.8 °C 67.1 °F /  19.5 °C 29.9 in /  1011.7 hPa SW 8.1 mph /  13.0 km/h 8.1 mph /  13.0 km/h 51 % 0 in /  0.0 mm
15:10 87.6 °F /  30.9 °C 67.3 °F /  19.6 °C 29.8 in /  1010.7 hPa SSW 5.8 mph /  9.3 km/h 5.8 mph /  9.3 km/h 51 % 0 in /  0.0 mm
15:15 87.3 °F /  30.7 °C 66.4 °F /  19.1 °C 29.8 in /  1010.7 hPa ENE 2.3 mph /  3.7 km/h 2.3 mph /  3.7 km/h 50 % 0 in /  0.0 mm
15:20 88.9 °F /  31.6 °C 67.3 °F /  19.6 °C 29.8 in /  1010.7 hPa WNW 3.8 mph /  6.1 km/h 3.8 mph /  6.1 km/h 49 % 0 in /  0.0 mm
15:25 88.7 °F /  31.5 °C 66.6 °F /  19.2 °C 29.9 in /  1011.7 hPa SW 3 mph /  4.8 km/h 6 mph /  9.7 km/h 48 % 0 in /  0.0 mm
15:30 89.1 °F /  31.7 °C 66.2 °F /  19.0 °C 29.9 in /  1011.7 hPa SSW 4.6 mph /  7.4 km/h 4.6 mph /  7.4 km/h 47 % 0 in /  0.0 mm
15:35 88.2 °F /  31.2 °C 66.6 °F /  19.2 °C 29.9 in /  1011.7 hPa ESE 5.8 mph /  9.3 km/h 5.8 mph /  9.3 km/h 49 % 0 in /  0.0 mm
15:40 88 °F /  31.1 °C 66.4 °F /  19.1 °C 29.9 in /  1011.7 hPa ESE 6.4 mph /  10.3 km/h 6.4 mph /  10.3 km/h 49 % 0 in /  0.0 mm
15:45 87.1 °F /  30.6 °C 66.7 °F /  19.3 °C 29.9 in /  1011.7 hPa ESE 3 mph /  4.8 km/h 7 mph /  11.3 km/h 51 % 0 in /  0.0 mm
15:50 87.6 °F /  30.9 °C 67.3 °F /  19.6 °C 29.9 in /  1011.7 hPa East 7.1 mph /  11.4 km/h 7.1 mph /  11.4 km/h 51 % 0 in /  0.0 mm
15:55 86.9 °F /  30.5 °C 66.6 °F /  19.2 °C 29.9 in /  1011.7 hPa ESE 3 mph /  4.8 km/h 8 mph /  12.9 km/h 51 % 0 in /  0.0 mm
16:00 86.5 °F /  30.3 °C 66.4 °F /  19.1 °C 29.9 in /  1011.7 hPa ESE 6.9 mph /  11.1 km/h 6.9 mph /  11.1 km/h 51 % 0 in /  0.0 mm
16:05 85.8 °F /  29.9 °C 65.7 °F /  18.7 °C 29.9 in /  1011.7 hPa East 3 mph /  4.8 km/h 7 mph /  11.3 km/h 51 % 0 in /  0.0 mm
16:10 86.2 °F /  30.1 °C 66.4 °F /  19.1 °C 29.9 in /  1011.7 hPa ENE 6 mph /  9.7 km/h 10 mph /  16.1 km/h 52 % 0 in /  0.0 mm
16:15 87.6 °F /  30.9 °C 66.7 °F /  19.3 °C 29.9 in /  1011.7 hPa SSE 3 mph /  4.8 km/h 13 mph /  20.9 km/h 50 % 0 in /  0.0 mm
16:20 88.9 °F /  31.6 °C 67.3 °F /  19.6 °C 29.9 in /  1011.7 hPa WNW 4.6 mph /  7.4 km/h 4.6 mph /  7.4 km/h 49 % 0 in /  0.0 mm
16:25 90.5 °F /  32.5 °C 67.5 °F /  19.7 °C 29.9 in /  1011.7 hPa SSE 3.6 mph /  5.8 km/h 3.6 mph /  5.8 km/h 47 % 0 in /  0.0 mm
16:30 88.7 °F /  31.5 °C 67.1 °F /  19.5 °C 29.9 in /  1011.7 hPa NE 3.6 mph /  5.8 km/h 3.6 mph /  5.8 km/h 49 % 0 in /  0.0 mm
16:35 88.7 °F /  31.5 °C 66.6 °F /  19.2 °C 29.9 in /  1011.7 hPa WSW 5.8 mph /  9.3 km/h 5.8 mph /  9.3 km/h 48 % 0 in /  0.0 mm
16:40 90.3 °F /  32.4 °C 67.5 °F /  19.7 °C 29.9 in /  1011.7 hPa SW 2.3 mph /  3.7 km/h 2.3 mph /  3.7 km/h 47 % 0 in /  0.0 mm
16:45 90.3 °F /  32.4 °C 67.5 °F /  19.7 °C 29.9 in /  1011.7 hPa WSW 5.8 mph /  9.3 km/h 5.8 mph /  9.3 km/h 47 % 0 in /  0.0 mm
16:50 89.4 °F /  31.9 °C 66.6 °F /  19.2 °C 29.9 in /  1011.7 hPa SSW 3 mph /  4.8 km/h 7 mph /  11.3 km/h 47 % 0 in /  0.0 mm
16:55 89.1 °F /  31.7 °C 65.7 °F /  18.7 °C 29.9 in /  1011.7 hPa SSE 2 mph /  3.2 km/h 7 mph /  11.3 km/h 46 % 0 in /  0.0 mm
17:00 86.7 °F /  30.4 °C 64 °F /  17.8 °C 29.9 in /  1011.7 hPa ESE 2 mph /  3.2 km/h 5 mph /  8.0 km/h 47 % 0 in /  0.0 mm
17:05 87.3 °F /  30.7 °C 64.6 °F /  18.1 °C 29.9 in /  1011.7 hPa ESE 2 mph /  3.2 km/h 6 mph /  9.7 km/h 47 % 0 in /  0.0 mm
17:10 87.8 °F /  31.0 °C 65.1 °F /  18.4 °C 29.9 in /  1011.7 hPa South 2 mph /  3.2 km/h 5 mph /  8.0 km/h 47 % 0 in /  0.0 mm
17:15 87.1 °F /  30.6 °C 64.9 °F /  18.3 °C 29.9 in /  1011.7 hPa SSW 3 mph /  4.8 km/h 8 mph /  12.9 km/h 48 % 0 in /  0.0 mm
17:17 87.1 °F /  30.6 °C 65.7 °F /  18.7 °C 29.9 in /  1011.7 hPa WSW 5.8 mph /  9.3 km/h 5.8 mph /  9.3 km/h 49 % 0 in /  0.0 mm
17:22 86.4 °F /  30.2 °C 64.9 °F /  18.3 °C 29.9 in /  1011.7 hPa SW 5.8 mph /  9.3 km/h 5.8 mph /  9.3 km/h 49 % 0 in /  0.0 mm
17:27 85.8 °F /  29.9 °C 64.9 °F /  18.3 °C 29.9 in /  1011.7 hPa SW 6.9 mph /  11.1 km/h 6.9 mph /  11.1 km/h 50 % 0 in /  0.0 mm
17:32 85.6 °F /  29.8 °C 64.9 °F /  18.3 °C 29.9 in /  1011.7 hPa SW 6.9 mph /  11.1 km/h 6.9 mph /  11.1 km/h 50 % 0 in /  0.0 mm
17:37 85.5 °F /  29.7 °C 64.8 °F /  18.2 °C 29.9 in /  1011.7 hPa SW 6.9 mph /  11.1 km/h 6.9 mph /  11.1 km/h 50 % 0 in /  0.0 mm
17:42 85.1 °F /  29.5 °C 64.9 °F /  18.3 °C 29.9 in /  1011.7 hPa West 6.9 mph /  11.1 km/h 6.9 mph /  11.1 km/h 51 % 0 in /  0.0 mm
17:47 84.6 °F /  29.2 °C 64.4 °F /  18.0 °C 29.9 in /  1011.7 hPa WSW 10.4 mph /  16.7 km/h 10.4 mph /  16.7 km/h 51 % 0 in /  0.0 mm
17:55 84.2 °F /  29.0 °C 64.8 °F /  18.2 °C 29.8 in /  1010.7 hPa SSW 8.1 mph /  13.0 km/h 8.1 mph /  13.0 km/h 52 % 0 in /  0.0 mm
18:00 84.2 °F /  29.0 °C 65.1 °F /  18.4 °C 29.8 in /  1010.7 hPa SW 6.9 mph /  11.1 km/h 6.9 mph /  11.1 km/h 53 % 0 in /  0.0 mm
18:05 84.2 °F /  29.0 °C 65.1 °F /  18.4 °C 29.9 in /  1011.7 hPa South 6.9 mph /  11.1 km/h 6.9 mph /  11.1 km/h 53 % 0 in /  0.0 mm
18:10 85.3 °F /  29.6 °C 65.7 °F /  18.7 °C 29.9 in /  1011.7 hPa SW 4.6 mph /  7.4 km/h 4.6 mph /  7.4 km/h 52 % 0 in /  0.0 mm
18:15 85.6 °F /  29.8 °C 66 °F /  18.9 °C 29.9 in /  1011.7 hPa SW 5.8 mph /  9.3 km/h 5.8 mph /  9.3 km/h 52 % 0 in /  0.0 mm
18:20 86 °F /  30.0 °C 66.4 °F /  19.1 °C 29.8 in /  1010.7 hPa SSW 9.2 mph /  14.8 km/h 9.2 mph /  14.8 km/h 52 % 0 in /  0.0 mm
18:25 85.8 °F /  29.9 °C 65.7 °F /  18.7 °C 29.8 in /  1010.7 hPa SSW 8.1 mph /  13.0 km/h 8.1 mph /  13.0 km/h 51 % 0 in /  0.0 mm
18:30 84.9 °F /  29.4 °C 64.8 °F /  18.2 °C 29.8 in /  1010.7 hPa SSW 6.9 mph /  11.1 km/h 6.9 mph /  11.1 km/h 51 % 0 in /  0.0 mm
18:35 84.9 °F /  29.4 °C 65.3 °F /  18.5 °C 29.9 in /  1011.7 hPa WSW 5.8 mph /  9.3 km/h 5.8 mph /  9.3 km/h 52 % 0 in /  0.0 mm
18:40 84.2 °F /  29.0 °C 64 °F /  17.8 °C 29.9 in /  1011.7 hPa WSW 8.1 mph /  13.0 km/h 8.1 mph /  13.0 km/h 51 % 0 in /  0.0 mm
18:45 83.7 °F /  28.7 °C 64.8 °F /  18.2 °C 29.9 in /  1011.7 hPa SW 8.1 mph /  13.0 km/h 8.1 mph /  13.0 km/h 53 % 0 in /  0.0 mm
18:50 83.3 °F /  28.5 °C 64.4 °F /  18.0 °C 29.9 in /  1011.7 hPa West 9.2 mph /  14.8 km/h 9.2 mph /  14.8 km/h 53 % 0 in /  0.0 mm
18:51 83.3 °F /  28.5 °C 64.4 °F /  18.0 °C 29.9 in /  1011.7 hPa South 9.2 mph /  14.8 km/h 9.2 mph /  14.8 km/h 53 % 0 in /  0.0 mm
18:56 82.8 °F /  28.2 °C 64.4 °F /  18.0 °C 29.9 in /  1011.7 hPa SW 12.7 mph /  20.4 km/h 12.7 mph /  20.4 km/h 54 % 0 in /  0.0 mm
19:01 82.6 °F /  28.1 °C 64.2 °F /  17.9 °C 29.9 in /  1011.7 hPa SW 9.2 mph /  14.8 km/h 9.2 mph /  14.8 km/h 54 % 0 in /  0.0 mm
19:06 82.6 °F /  28.1 °C 64.2 °F /  17.9 °C 29.9 in /  1011.7 hPa SW 8.1 mph /  13.0 km/h 8.1 mph /  13.0 km/h 54 % 0 in /  0.0 mm
19:10 75.4 °F /  24.1 °C 64 °F /  17.8 °C 30 in /  1014.8 hPa Calm     68 % 0 in /  0.0 mm
19:11 83.1 °F /  28.4 °C 64.8 °F /  18.2 °C 29.9 in /  1011.7 hPa South 5.8 mph /  9.3 km/h 5.8 mph /  9.3 km/h 54 % 0 in /  0.0 mm
19:16 83.7 °F /  28.7 °C 65.3 °F /  18.5 °C 29.9 in /  1011.7 hPa WSW 8.7 mph /  14.0 km/h 8.7 mph /  14.0 km/h 54 % 0 in /  0.0 mm
19:20 75.2 °F /  24.0 °C 64.2 °F /  17.9 °C 30 in /  1014.8 hPa Calm   1 mph /  1.6 km/h 69 % 0 in /  0.0 mm
19:21 83.8 °F /  28.8 °C 65.5 °F /  18.6 °C 29.9 in /  1011.7 hPa South 5.8 mph /  9.3 km/h 5.8 mph /  9.3 km/h 54 % 0 in /  0.0 mm
19:26 83.7 °F /  28.7 °C 65.3 °F /  18.5 °C 29.9 in /  1011.7 hPa SW 7.8 mph /  12.6 km/h 7.8 mph /  12.6 km/h 54 % 0 in /  0.0 mm
19:30 75 °F /  23.9 °C 64.6 °F /  18.1 °C 30 in /  1014.8 hPa WNW 1 mph /  1.6 km/h 1 mph /  1.6 km/h 70 % 0 in /  0.0 mm
19:31 83.3 °F /  28.5 °C 64.9 °F /  18.3 °C 29.9 in /  1011.7 hPa SSW 5.8 mph /  9.3 km/h 5.8 mph /  9.3 km/h 54 % 0 in /  0.0 mm
19:36 83.3 °F /  28.5 °C 64.9 °F /  18.3 °C 29.9 in /  1011.7 hPa SSW 5.4 mph /  8.7 km/h 5.4 mph /  8.7 km/h 54 % 0 in /  0.0 mm
19:40 74.8 °F /  23.8 °C 64.8 °F /  18.2 °C 30 in /  1014.8 hPa Calm   1 mph /  1.6 km/h 71 % 0 in /  0.0 mm
19:41 83.3 °F /  28.5 °C 64.9 °F /  18.3 °C 29.9 in /  1011.7 hPa SW 9.4 mph /  15.1 km/h 9.4 mph /  15.1 km/h 54 % 0 in /  0.0 mm
19:46 82.9 °F /  28.3 °C 64 °F /  17.8 °C 29.9 in /  1011.7 hPa South 8.1 mph /  13.0 km/h 8.1 mph /  13.0 km/h 53 % 0 in /  0.0 mm
19:50 74.5 °F /  23.6 °C 64.6 °F /  18.1 °C 30 in /  1014.8 hPa Calm   2 mph /  3.2 km/h 71 % 0 in /  0.0 mm
19:51 82.6 °F /  28.1 °C 63.7 °F /  17.6 °C 29.9 in /  1011.7 hPa SSE 5.8 mph /  9.3 km/h 5.9 mph /  9.5 km/h 53 % 0 in /  0.0 mm
19:56 82.4 °F /  28.0 °C 63.5 °F /  17.5 °C 29.9 in /  1011.7 hPa South 8.1 mph /  13.0 km/h 8.1 mph /  13.0 km/h 53 % 0 in /  0.0 mm
20:00 74.3 °F /  23.5 °C 64.2 °F /  17.9 °C 30 in /  1014.8 hPa Calm   1 mph /  1.6 km/h 71 % 0 in /  0.0 mm
20:01 82 °F /  27.8 °C 63.9 °F /  17.7 °C 29.9 in /  1011.7 hPa SSW 8.1 mph /  13.0 km/h 8.1 mph /  13.0 km/h 54 % 0 in /  0.0 mm
20:06 81.9 °F /  27.7 °C 63.7 °F /  17.6 °C 29.9 in /  1011.7 hPa SW 4.6 mph /  7.4 km/h 4.6 mph /  7.4 km/h 54 % 0 in /  0.0 mm
20:10 74.3 °F /  23.5 °C 64.8 °F /  18.2 °C 30 in /  1014.8 hPa Calm   1 mph /  1.6 km/h 72 % 0 in /  0.0 mm
20:11 81.7 °F /  27.6 °C 63.3 °F /  17.4 °C 29.9 in /  1011.7 hPa SSW 5.8 mph /  9.3 km/h 5.8 mph /  9.3 km/h 54 % 0 in /  0.0 mm
20:16 81.5 °F /  27.5 °C 63.3 °F /  17.4 °C 29.9 in /  1011.7 hPa SW 4.6 mph /  7.4 km/h 4.6 mph /  7.4 km/h 54 % 0 in /  0.0 mm
20:20 74.3 °F /  23.5 °C 64.8 °F /  18.2 °C 30 in /  1014.8 hPa WSW 1 mph /  1.6 km/h 2 mph /  3.2 km/h 72 % 0 in /  0.0 mm
20:21 81.5 °F /  27.5 °C 63.3 °F /  17.4 °C 29.9 in /  1011.7 hPa SW 3.5 mph /  5.6 km/h 3.5 mph /  5.6 km/h 54 % 0 in /  0.0 mm
20:26 81.5 °F /  27.5 °C 63.9 °F /  17.7 °C 29.9 in /  1011.7 hPa SSW 4.6 mph /  7.4 km/h 4.6 mph /  7.4 km/h 55 % 0 in /  0.0 mm
20:30 74.3 °F /  23.5 °C 65.1 °F /  18.4 °C 30 in /  1015.8 hPa Calm   2 mph /  3.2 km/h 73 % 0 in /  0.0 mm
20:31 81.1 °F /  27.3 °C 63.3 °F /  17.4 °C 29.9 in /  1011.7 hPa SSW 4.6 mph /  7.4 km/h 4.6 mph /  7.4 km/h 55 % 0 in /  0.0 mm
20:36 81 °F /  27.2 °C 63.3 °F /  17.4 °C 29.9 in /  1011.7 hPa WNW 6.9 mph /  11.1 km/h 6.9 mph /  11.1 km/h 55 % 0 in /  0.0 mm
20:40 74.1 °F /  23.4 °C 64.9 °F /  18.3 °C 30 in /  1015.8 hPa WSW 2 mph /  3.2 km/h 3 mph /  4.8 km/h 73 % 0 in /  0.0 mm
20:41 80.8 °F /  27.1 °C 63.7 °F /  17.6 °C 29.9 in /  1011.7 hPa SSW 5.4 mph /  8.7 km/h 5.4 mph /  8.7 km/h 56 % 0 in /  0.0 mm
20:46 80.4 °F /  26.9 °C 63.9 °F /  17.7 °C 29.9 in /  1011.7 hPa WSW 5.8 mph /  9.3 km/h 5.8 mph /  9.3 km/h 57 % 0 in /  0.0 mm
20:50 74.1 °F /  23.4 °C 65.3 °F /  18.5 °C 30 in /  1015.8 hPa WSW 1 mph /  1.6 km/h 2 mph /  3.2 km/h 74 % 0 in /  0.0 mm
20:51 80.2 °F /  26.8 °C 64 °F /  17.8 °C 29.9 in /  1011.7 hPa SW 3.5 mph /  5.6 km/h 3.5 mph /  5.6 km/h 58 % 0 in /  0.0 mm
20:56 80.1 °F /  26.7 °C 64 °F /  17.8 °C 29.9 in /  1011.7 hPa SW 5.8 mph /  9.3 km/h 5.8 mph /  9.3 km/h 58 % 0 in /  0.0 mm
21:00 74.1 °F /  23.4 °C 65.7 °F /  18.7 °C 30 in /  1015.8 hPa West 1 mph /  1.6 km/h 1 mph /  1.6 km/h 75 % 0 in /  0.0 mm
21:01 79.9 °F /  26.6 °C 63.9 °F /  17.7 °C 29.9 in /  1011.7 hPa SW 5.8 mph /  9.3 km/h 5.8 mph /  9.3 km/h 58 % 0 in /  0.0 mm
21:06 79.7 °F /  26.5 °C 64 °F /  17.8 °C 29.9 in /  1011.7 hPa SW 5.8 mph /  9.3 km/h 5.8 mph /  9.3 km/h 59 % 0 in /  0.0 mm
21:10 73.6 °F /  23.1 °C 65.1 °F /  18.4 °C 30 in /  1015.8 hPa NE 1 mph /  1.6 km/h 2 mph /  3.2 km/h 75 % 0 in /  0.0 mm
21:11 79.5 °F /  26.4 °C 63.9 °F /  17.7 °C 29.9 in /  1011.7 hPa SW 5.8 mph /  9.3 km/h 5.8 mph /  9.3 km/h 59 % 0 in /  0.0 mm
21:16 79.3 °F /  26.3 °C 63.9 °F /  17.7 °C 29.9 in /  1011.7 hPa SW 5.8 mph /  9.3 km/h 5.8 mph /  9.3 km/h 59 % 0 in /  0.0 mm
21:20 73.2 °F /  22.9 °C 65.1 °F /  18.4 °C 30 in /  1015.8 hPa ESE 2 mph /  3.2 km/h 3 mph /  4.8 km/h 76 % 0 in /  0.0 mm
21:21 79.2 °F /  26.2 °C 64 °F /  17.8 °C 29.9 in /  1012.8 hPa WSW 3.5 mph /  5.6 km/h 3.5 mph /  5.6 km/h 60 % 0 in /  0.0 mm
21:26 79 °F /  26.1 °C 63.9 °F /  17.7 °C 29.9 in /  1012.8 hPa SW 5.4 mph /  8.7 km/h 5.4 mph /  8.7 km/h 60 % 0 in /  0.0 mm
21:30 72.9 °F /  22.7 °C 64.6 °F /  18.1 °C 30 in /  1015.8 hPa East 1 mph /  1.6 km/h 2 mph /  3.2 km/h 75 % 0 in /  0.0 mm
21:31 78.8 °F /  26.0 °C 63.7 °F /  17.6 °C 29.9 in /  1012.8 hPa SSW 4.6 mph /  7.4 km/h 4.6 mph /  7.4 km/h 60 % 0 in /  0.0 mm
21:36 78.6 °F /  25.9 °C 63.7 °F /  17.6 °C 29.9 in /  1012.8 hPa SW 3.5 mph /  5.6 km/h 3.5 mph /  5.6 km/h 60 % 0 in /  0.0 mm
21:40 72.7 °F /  22.6 °C 64.2 °F /  17.9 °C 30 in /  1015.8 hPa East 1 mph /  1.6 km/h 1 mph /  1.6 km/h 75 % 0 in /  0.0 mm
21:41 78.4 °F /  25.8 °C 63.9 °F /  17.7 °C 29.9 in /  1012.8 hPa WSW 5.8 mph /  9.3 km/h 5.8 mph /  9.3 km/h 61 % 0 in /  0.0 mm
21:46 78.3 °F /  25.7 °C 63.7 °F /  17.6 °C 29.9 in /  1012.8 hPa SW 4.6 mph /  7.4 km/h 4.6 mph /  7.4 km/h 61 % 0 in /  0.0 mm
21:50 72.5 °F /  22.5 °C 64 °F /  17.8 °C 30 in /  1015.8 hPa Calm     75 % 0 in /  0.0 mm
21:51 78.1 °F /  25.6 °C 63.5 °F /  17.5 °C 29.9 in /  1013.8 hPa SSW 3.5 mph /  5.6 km/h 3.5 mph /  5.6 km/h 61 % 0 in /  0.0 mm
21:56 77.9 °F /  25.5 °C 63.3 °F /  17.4 °C 29.9 in /  1013.8 hPa WSW 3.5 mph /  5.6 km/h 3.5 mph /  5.6 km/h 61 % 0 in /  0.0 mm
22:00 72.1 °F /  22.3 °C 64.2 °F /  17.9 °C 30 in /  1016.8 hPa SSE 1 mph /  1.6 km/h 2 mph /  3.2 km/h 76 % 0 in /  0.0 mm
22:01 77.9 °F /  25.5 °C 63.3 °F /  17.4 °C 29.9 in /  1013.8 hPa WSW 3.5 mph /  5.6 km/h 3.5 mph /  5.6 km/h 61 % 0 in /  0.0 mm
22:06 77.7 °F /  25.4 °C 63.1 °F /  17.3 °C 29.9 in /  1013.8 hPa SW 3.5 mph /  5.6 km/h 3.5 mph /  5.6 km/h 61 % 0 in /  0.0 mm
22:10 72.1 °F /  22.3 °C 64.2 °F /  17.9 °C 30 in /  1015.8 hPa Calm   2 mph /  3.2 km/h 76 % 0 in /  0.0 mm
22:11 77.5 °F /  25.3 °C 63.5 °F /  17.5 °C 29.9 in /  1013.8 hPa South 4.6 mph /  7.4 km/h 4.6 mph /  7.4 km/h 62 % 0 in /  0.0 mm
22:16 77.4 °F /  25.2 °C 63.3 °F /  17.4 °C 29.9 in /  1013.8 hPa SW 2.3 mph /  3.7 km/h 2.3 mph /  3.7 km/h 62 % 0 in /  0.0 mm
22:20 72.3 °F /  22.4 °C 64.2 °F /  17.9 °C 30 in /  1015.8 hPa Calm   2 mph /  3.2 km/h 76 % 0 in /  0.0 mm
22:21 77.2 °F /  25.1 °C 63.1 °F /  17.3 °C 29.9 in /  1013.8 hPa SW 3.5 mph /  5.6 km/h 3.5 mph /  5.6 km/h 62 % 0 in /  0.0 mm
22:26 77.2 °F /  25.1 °C 63.7 °F /  17.6 °C 29.9 in /  1013.8 hPa SW 2.3 mph /  3.7 km/h 2.3 mph /  3.7 km/h 63 % 0 in /  0.0 mm
22:30 72.3 °F /  22.4 °C 64.2 °F /  17.9 °C 30 in /  1015.8 hPa Calm     76 % 0 in /  0.0 mm
22:31 77 °F /  25.0 °C 63.3 °F /  17.4 °C 29.9 in /  1013.8 hPa SW 3.1 mph /  5.0 km/h 3.1 mph /  5.0 km/h 63 % 0 in /  0.0 mm
22:36 77 °F /  25.0 °C 63.3 °F /  17.4 °C 29.9 in /  1013.8 hPa SW 2.3 mph /  3.7 km/h 2.3 mph /  3.7 km/h 63 % 0 in /  0.0 mm
22:40 72.5 °F /  22.5 °C 64.9 °F /  18.3 °C 30 in /  1015.8 hPa ENE 1 mph /  1.6 km/h 1 mph /  1.6 km/h 77 % 0 in /  0.0 mm
22:41 76.8 °F /  24.9 °C 63.7 °F /  17.6 °C 29.9 in /  1013.8 hPa SW 3.5 mph /  5.6 km/h 3.5 mph /  5.6 km/h 64 % 0 in /  0.0 mm
22:46 76.8 °F /  24.9 °C 64.2 °F /  17.9 °C 29.9 in /  1013.8 hPa WSW 1.2 mph /  1.9 km/h 1.2 mph /  1.9 km/h 65 % 0 in /  0.0 mm
22:50 72.7 °F /  22.6 °C 65.1 °F /  18.4 °C 30 in /  1015.8 hPa Calm   2 mph /  3.2 km/h 77 % 0 in /  0.0 mm
22:51 76.6 °F /  24.8 °C 64 °F /  17.8 °C 29.9 in /  1013.8 hPa WSW 1.2 mph /  1.9 km/h 1.2 mph /  1.9 km/h 65 % 0 in /  0.0 mm
22:56 76.6 °F /  24.8 °C 64 °F /  17.8 °C 29.9 in /  1013.8 hPa WNW 1.2 mph /  1.9 km/h   65 % 0 in /  0.0 mm
22:57 76.6 °F /  24.8 °C 64 °F /  17.8 °C 29.9 in /  1013.8 hPa Calm     65 % 0 in /  0.0 mm
23:00 72.7 °F /  22.6 °C 65.1 °F /  18.4 °C 30 in /  1015.8 hPa NE 1 mph /  1.6 km/h 2 mph /  3.2 km/h 77 % 0 in /  0.0 mm
23:02 76.6 °F /  24.8 °C 64 °F /  17.8 °C 29.9 in /  1013.8 hPa West 1.2 mph /  1.9 km/h 1.2 mph /  1.9 km/h 65 % 0 in /  0.0 mm
23:07 76.5 °F /  24.7 °C 64.2 °F /  17.9 °C 29.9 in /  1013.8 hPa Calm     66 % 0 in /  0.0 mm
23:10 73 °F /  22.8 °C 65.5 °F /  18.6 °C 30 in /  1015.8 hPa NNE 1 mph /  1.6 km/h 2 mph /  3.2 km/h 77 % 0 in /  0.0 mm
23:12 76.5 °F /  24.7 °C 64.2 °F /  17.9 °C 29.9 in /  1013.8 hPa WSW 0.9 mph /  1.4 km/h   66 % 0 in /  0.0 mm
23:17 76.3 °F /  24.6 °C 64 °F /  17.8 °C 29.9 in /  1013.8 hPa Calm     66 % 0 in /  0.0 mm
23:20 73.2 °F /  22.9 °C 65.7 °F /  18.7 °C 30 in /  1015.8 hPa NNE 2 mph /  3.2 km/h 3 mph /  4.8 km/h 77 % 0 in /  0.0 mm
23:22 76.3 °F /  24.6 °C 64 °F /  17.8 °C 29.9 in /  1013.8 hPa Calm     66 % 0 in /  0.0 mm
23:27 76.1 °F /  24.5 °C 64.2 °F /  17.9 °C 29.9 in /  1013.8 hPa WSW 1.4 mph /  2.3 km/h 1.4 mph /  2.3 km/h 67 % 0 in /  0.0 mm
23:30 73.2 °F /  22.9 °C 65.1 °F /  18.4 °C 30 in /  1015.8 hPa NNE 2 mph /  3.2 km/h 3 mph /  4.8 km/h 76 % 0 in /  0.0 mm
23:32 76.1 °F /  24.5 °C 64.2 °F /  17.9 °C 29.9 in /  1013.8 hPa Calm     67 % 0 in /  0.0 mm
23:37 75.9 °F /  24.4 °C 64.2 °F /  17.9 °C 29.9 in /  1013.8 hPa WSW 2.4 mph /  3.9 km/h   67 % 0 in /  0.0 mm
23:40 72.9 °F /  22.7 °C 65.1 °F /  18.4 °C 30 in /  1015.8 hPa Calm   2 mph /  3.2 km/h 77 % 0 in /  0.0 mm
23:42 75.9 °F /  24.4 °C 64.2 °F /  17.9 °C 29.9 in /  1013.8 hPa WSW 2.3 mph /  3.7 km/h 2.3 mph /  3.7 km/h 67 % 0 in /  0.0 mm
23:47 75.9 °F /  24.4 °C 64.2 °F /  17.9 °C 29.9 in /  1013.8 hPa West 2.6 mph /  4.2 km/h 2.6 mph /  4.2 km/h 67 % 0 in /  0.0 mm
23:50 72.7 °F /  22.6 °C 65.1 °F /  18.4 °C 30 in /  1015.8 hPa Calm     77 % 0 in /  0.0 mm
23:52 75.7 °F /  24.3 °C 64.4 °F /  18.0 °C 30 in /  1014.8 hPa WSW 1.2 mph /  1.9 km/h   68 % 0 in /  0.0 mm
23:57 75.7 °F /  24.3 °C 64.4 °F /  18.0 °C 30 in /  1014.8 hPa WSW 1.2 mph /  1.9 km/h 1.2 mph /  1.9 km/h 68 % 0 in /  0.0 mm
Meteo Sesrovires
Elogis d' Weather Underground - 3.75 mb

Guio original per  Jim McMurry - jmcmurry@mwt.net Adaptat per a la plantilla per  Wim van der Kuil - Leuven-Template.eu

Trobareu la nostra informacio del temps tambe a:

Weather Underground

AWEKAS